Time;durP1;ratioP1;P1;durP2;ratioP2;P2;SDS_P1;SDS_P2;PMS_P1;PMS_P2;Temp;Humidity;BMP_temperature;BMP_pressure;BME280_temperature;BME280_humidity;BME280_pressure;Samples;Min_cycle;Max_cycle;Signal;HPM_P1;HPM_P2
2023/08/14 00:01:54;;;;;;;4.10;2.75;;;15.70;99.90;;;;;;5099281;28;20063;-77
2023/08/14 00:04:20;;;;;;;5.10;3.00;;;15.70;99.90;;;;;;5096672;28;20036;-77
2023/08/14 00:06:46;;;;;;;6.18;2.58;;;15.60;99.90;;;;;;5095335;28;20048;-75
2023/08/14 00:09:11;;;;;;;5.35;2.53;;;15.60;99.90;;;;;;5095508;28;20406;-76
2023/08/14 00:11:37;;;;;;;4.47;2.53;;;15.60;99.90;;;;;;5094828;28;20040;-76
2023/08/14 00:14:04;;;;;;;5.90;2.90;;;15.60;99.90;;;;;;5096707;28;20047;-76
2023/08/14 00:16:29;;;;;;;5.32;2.65;;;15.60;99.90;;;;;;5096442;28;20118;-76
2023/08/14 00:18:55;;;;;;;6.43;2.88;;;15.50;99.90;;;;;;5096019;28;20040;-76
2023/08/14 00:21:21;;;;;;;8.70;2.78;;;15.50;99.90;;;;;;5096169;28;20036;-76
2023/08/14 00:23:47;;;;;;;7.90;3.25;;;15.50;99.90;;;;;;5094697;28;20060;-75
2023/08/14 00:26:13;;;;;;;6.32;3.10;;;15.50;99.90;;;;;;5096261;28;20515;-76
2023/08/14 00:28:39;;;;;;;5.93;2.90;;;15.50;99.90;;;;;;5095347;28;20128;-76
2023/08/14 00:31:05;;;;;;;4.97;2.80;;;15.50;99.90;;;;;;5094861;28;20460;-76
2023/08/14 00:33:31;;;;;;;6.78;3.10;;;15.40;99.90;;;;;;5095758;28;20042;-77
2023/08/14 00:35:56;;;;;;;6.20;3.13;;;15.40;99.90;;;;;;5094588;28;20093;-76
2023/08/14 00:38:22;;;;;;;6.75;3.10;;;15.40;99.90;;;;;;5094117;28;20505;-76
2023/08/14 00:40:48;;;;;;;7.32;3.38;;;15.40;99.90;;;;;;5095392;28;20455;-76
2023/08/14 00:43:13;;;;;;;5.80;3.15;;;15.30;99.90;;;;;;5094509;28;20044;-76
2023/08/14 00:45:40;;;;;;;4.80;2.60;;;15.30;99.90;;;;;;5096103;28;20040;-76
2023/08/14 00:48:06;;;;;;;9.77;3.13;;;15.30;99.90;;;;;;5095507;28;20036;-76
2023/08/14 00:50:32;;;;;;;6.55;3.10;;;15.30;99.90;;;;;;5095516;28;20054;-76
2023/08/14 00:53:00;;;;;;;4.97;3.35;;;15.30;99.90;;;;;;5094989;28;20040;-76
2023/08/14 00:55:26;;;;;;;6.22;2.97;;;15.30;99.90;;;;;;5095577;28;20059;-76
2023/08/14 00:57:53;;;;;;;6.60;3.00;;;15.20;99.90;;;;;;5095820;28;20036;-76
2023/08/14 01:00:19;;;;;;;6.00;3.57;;;15.20;99.90;;;;;;5096230;28;20089;-76
2023/08/14 01:02:46;;;;;;;9.18;4.63;;;15.20;99.90;;;;;;5095881;28;20274;-76
2023/08/14 01:05:12;;;;;;;8.35;3.78;;;15.20;99.90;;;;;;5095237;28;20036;-76
2023/08/14 01:07:38;;;;;;;3.60;2.78;;;15.20;99.90;;;;;;5110437;28;20080;-76
2023/08/14 01:10:08;;;;;;;4.70;2.90;;;15.20;99.90;;;;;;5115280;28;20048;-77
2023/08/14 01:12:37;;;;;;;7.43;3.42;;;15.20;99.90;;;;;;5098958;28;20122;-77
2023/08/14 01:15:08;;;;;;;6.63;3.78;;;15.20;99.90;;;;;;5096608;28;20040;-76
2023/08/14 01:17:36;;;;;;;5.03;3.28;;;15.20;99.90;;;;;;5098014;28;20085;-77
2023/08/14 01:20:04;;;;;;;9.23;3.13;;;15.10;99.90;;;;;;5097635;28;20036;-77
2023/08/14 01:22:39;;;;;;;;;;;15.10;99.90;;;;;;5098227;28;20130;-77
2023/08/14 01:25:23;;;;;;;4.78;3.20;;;15.20;99.90;;;;;;5100210;28;20339;-77
2023/08/14 01:27:50;;;;;;;5.90;3.40;;;15.20;99.90;;;;;;5099132;28;20036;-76
2023/08/14 01:30:16;;;;;;;4.35;2.97;;;15.10;99.90;;;;;;5099545;28;20044;-76
2023/08/14 01:32:42;;;;;;;5.22;3.13;;;15.10;99.90;;;;;;5104390;28;20035;-77
2023/08/14 01:35:08;;;;;;;7.07;3.20;;;15.10;99.90;;;;;;5121514;28;20043;-76
2023/08/14 01:37:44;;;;;;;5.53;3.25;;;15.10;99.90;;;;;;5121209;28;20101;-76
2023/08/14 01:40:25;;;;;;;6.47;3.70;;;15.10;99.90;;;;;;5108160;28;20027;-77
2023/08/14 01:42:58;;;;;;;5.88;2.95;;;15.10;99.90;;;;;;5101920;28;20123;-77
2023/08/14 01:45:26;;;;;;;7.47;2.97;;;15.10;99.90;;;;;;5105524;28;20062;-77
2023/08/14 01:47:54;;;;;;;6.35;2.78;;;15.00;99.90;;;;;;5086610;28;20036;-77
2023/08/14 01:50:23;;;;;;;4.05;2.55;;;15.10;99.90;;;;;;5103335;28;20166;-77
2023/08/14 01:52:49;;;;;;;3.75;2.60;;;15.00;99.90;;;;;;5103256;28;20052;-77
2023/08/14 01:55:14;;;;;;;4.32;2.83;;;15.00;99.90;;;;;;5105240;28;20066;-76
2023/08/14 01:57:41;;;;;;;7.55;3.15;;;15.00;99.90;;;;;;5103764;28;20040;-76
2023/08/14 02:00:10;;;;;;;9.07;3.05;;;15.10;99.90;;;;;;5100117;28;20036;-76
2023/08/14 02:02:36;;;;;;;5.10;3.17;;;15.00;99.90;;;;;;5100789;28;20123;-76
2023/08/14 02:05:02;;;;;;;8.65;3.00;;;15.00;99.90;;;;;;5100951;28;20114;-76
2023/08/14 02:07:29;;;;;;;8.02;3.30;;;15.00;99.90;;;;;;5114668;28;20406;-76
2023/08/14 02:09:55;;;;;;;9.23;3.07;;;15.00;99.90;;;;;;5094553;28;20044;-75
2023/08/14 02:12:21;;;;;;;8.20;3.20;;;15.00;99.90;;;;;;5094287;28;20374;-76
2023/08/14 02:14:46;;;;;;;6.38;3.58;;;15.00;99.90;;;;;;5097608;28;20051;-76
2023/08/14 02:17:12;;;;;;;5.13;3.22;;;15.00;99.90;;;;;;5078123;28;20050;-75
2023/08/14 02:19:38;;;;;;;7.18;3.88;;;15.00;99.90;;;;;;5075895;28;20048;-76
2023/08/14 02:22:03;;;;;;;6.60;3.47;;;15.00;99.90;;;;;;5093850;28;20044;-76
2023/08/14 02:24:29;;;;;;;6.45;3.47;;;15.00;99.90;;;;;;5092803;28;20048;-76
2023/08/14 02:26:55;;;;;;;7.38;3.55;;;15.00;99.90;;;;;;5092689;28;20048;-76
2023/08/14 02:29:21;;;;;;;6.40;3.90;;;15.00;99.90;;;;;;5092060;28;20127;-76
2023/08/14 02:31:50;;;;;;;5.78;3.60;;;15.00;99.90;;;;;;5093649;28;20501;-76
2023/08/14 02:34:52;;;;;;;5.35;3.50;;;15.00;99.90;;;;;;5091994;28;20079;-76
2023/08/14 02:37:19;;;;;;;8.50;4.00;;;15.00;99.90;;;;;;5093248;28;20044;-76
2023/08/14 02:39:45;;;;;;;7.93;3.75;;;14.90;99.90;;;;;;5092391;28;20040;-76
2023/08/14 02:42:16;;;;;;;5.68;3.47;;;15.00;99.90;;;;;;5093430;28;20054;-77
2023/08/14 02:44:41;;;;;;;6.93;3.90;;;15.00;99.90;;;;;;5075332;28;20048;-75
2023/08/14 02:47:07;;;;;;;8.70;3.95;;;15.00;99.90;;;;;;5075511;28;20047;-76
2023/08/14 02:49:33;;;;;;;6.60;4.03;;;15.00;99.90;;;;;;5093362;28;20547;-77
2023/08/14 02:51:59;;;;;;;7.15;4.50;;;15.00;99.90;;;;;;5093875;28;20440;-77
2023/08/14 02:54:25;;;;;;;6.57;3.88;;;15.00;99.90;;;;;;5079389;28;20051;-76
2023/08/14 02:56:51;;;;;;;6.72;4.32;;;15.00;99.90;;;;;;5097741;28;20423;-77
2023/08/14 02:59:17;;;;;;;7.05;4.32;;;15.00;99.90;;;;;;5096377;28;20047;-77
2023/08/14 03:01:45;;;;;;;8.70;5.53;;;15.00;99.90;;;;;;5096397;28;20136;-76
2023/08/14 03:04:12;;;;;;;11.02;5.50;;;15.00;99.90;;;;;;5117960;28;20122;-77
2023/08/14 03:06:38;;;;;;;9.65;5.30;;;15.00;99.90;;;;;;5112105;28;20040;-77
2023/08/14 03:09:03;;;;;;;7.22;5.05;;;15.00;99.90;;;;;;5097390;28;20059;-76
2023/08/14 03:11:29;;;;;;;10.82;5.60;;;15.00;99.90;;;;;;5097070;28;20478;-76
2023/08/14 03:13:55;;;;;;;7.30;5.18;;;15.00;99.90;;;;;;5095993;28;20047;-77
2023/08/14 03:16:20;;;;;;;9.43;5.72;;;15.00;99.90;;;;;;5112356;28;20105;-77
2023/08/14 03:18:46;;;;;;;10.30;5.70;;;15.00;99.90;;;;;;5117259;28;20043;-77
2023/08/14 03:21:12;;;;;;;11.30;6.55;;;15.00;99.90;;;;;;5116006;28;20112;-77
2023/08/14 03:23:38;;;;;;;10.38;6.28;;;14.90;99.90;;;;;;5116180;28;20035;-76
2023/08/14 03:26:04;;;;;;;10.30;6.53;;;14.90;99.90;;;;;;5098997;28;20069;-77
2023/08/14 03:28:30;;;;;;;11.10;6.28;;;14.90;99.90;;;;;;5117595;28;20040;-77
2023/08/14 03:30:56;;;;;;;9.98;6.05;;;14.90;99.90;;;;;;5101096;28;20482;-77
2023/08/14 03:33:21;;;;;;;11.35;6.57;;;14.90;99.90;;;;;;5095403;28;20047;-76
2023/08/14 03:35:47;;;;;;;9.50;6.40;;;14.90;99.90;;;;;;5096585;28;20056;-77
2023/08/14 03:38:13;;;;;;;11.82;6.95;;;14.90;99.90;;;;;;5115859;28;20089;-77
2023/08/14 03:40:38;;;;;;;10.10;7.15;;;14.90;99.90;;;;;;5115996;28;20039;-76
2023/08/14 03:43:04;;;;;;;10.93;6.97;;;14.90;99.90;;;;;;5094440;28;20082;-77
2023/08/14 03:45:30;;;;;;;12.52;7.70;;;14.90;99.90;;;;;;5096422;28;20040;-77
2023/08/14 03:47:56;;;;;;;12.20;7.50;;;14.90;99.90;;;;;;5096827;28;20048;-77
2023/08/14 03:50:21;;;;;;;12.23;8.10;;;14.90;99.90;;;;;;5095103;28;20044;-77
2023/08/14 03:52:50;;;;;;;11.77;7.43;;;14.90;99.90;;;;;;5111147;28;20040;-77
2023/08/14 03:55:16;;;;;;;10.85;7.50;;;14.90;99.90;;;;;;5096283;28;20044;-77
2023/08/14 03:57:41;;;;;;;13.02;7.65;;;15.00;99.90;;;;;;5095240;28;20408;-77
2023/08/14 04:00:08;;;;;;;18.88;8.07;;;15.00;99.90;;;;;;5095293;28;20106;-77
2023/08/14 04:02:34;;;;;;;12.43;8.55;;;15.00;99.90;;;;;;5097449;28;20044;-77
2023/08/14 04:04:59;;;;;;;19.08;8.70;;;15.00;99.90;;;;;;5095979;28;20137;-77
2023/08/14 04:07:25;;;;;;;11.40;8.32;;;15.00;99.90;;;;;;5097104;28;20101;-77
2023/08/14 04:09:51;;;;;;;13.70;8.57;;;15.00;99.90;;;;;;5097336;28;20044;-77
2023/08/14 04:12:16;;;;;;;13.95;7.90;;;15.10;99.90;;;;;;5096315;28;20494;-77
2023/08/14 04:14:43;;;;;;;16.38;9.10;;;15.10;99.90;;;;;;5096253;28;20046;-77
2023/08/14 04:17:09;;;;;;;10.40;8.48;;;15.10;99.90;;;;;;5115518;28;20054;-77
2023/08/14 04:19:35;;;;;;;11.80;8.20;;;15.10;99.90;;;;;;5116641;28;20048;-77
2023/08/14 04:22:00;;;;;;;13.77;8.25;;;15.10;99.90;;;;;;5116096;28;20043;-77
2023/08/14 04:24:26;;;;;;;12.10;8.35;;;15.10;99.90;;;;;;5095973;28;20044;-77
2023/08/14 04:26:52;;;;;;;12.73;8.20;;;15.10;99.90;;;;;;5095015;28;20051;-77
2023/08/14 04:29:18;;;;;;;14.85;8.38;;;15.20;99.90;;;;;;5095913;28;20051;-78
2023/08/14 04:31:45;;;;;;;12.93;8.77;;;15.20;99.90;;;;;;5078211;28;20040;-77
2023/08/14 04:34:11;;;;;;;15.90;9.02;;;15.20;99.90;;;;;;5095666;28;20050;-77
2023/08/14 04:36:37;;;;;;;11.38;8.35;;;15.20;99.90;;;;;;5095716;28;20048;-77
2023/08/14 04:39:04;;;;;;;15.10;8.55;;;15.20;99.90;;;;;;5095927;28;20083;-76
2023/08/14 04:41:31;;;;;;;11.90;7.57;;;15.30;99.90;;;;;;5095540;28;20117;-76
2023/08/14 04:43:56;;;;;;;10.07;7.80;;;15.30;99.90;;;;;;5095301;28;20040;-77
2023/08/14 04:46:32;;;;;;;12.57;7.93;;;15.30;99.90;;;;;;5094870;28;20448;-77
2023/08/14 04:48:59;;;;;;;14.88;7.65;;;15.30;99.90;;;;;;5095530;28;20052;-77
2023/08/14 04:51:25;;;;;;;11.55;8.07;;;15.30;99.90;;;;;;5095558;28;20127;-76
2023/08/14 04:53:51;;;;;;;10.23;7.88;;;15.40;99.90;;;;;;5094201;28;20032;-77
2023/08/14 04:56:17;;;;;;;12.98;7.85;;;15.40;99.90;;;;;;5095290;28;20040;-76
2023/08/14 04:58:46;;;;;;;14.80;7.85;;;15.40;99.90;;;;;;5093865;28;20044;-76
2023/08/14 05:01:11;;;;;;;15.65;7.63;;;15.40;99.90;;;;;;5093895;28;20375;-77
2023/08/14 05:03:37;;;;;;;15.50;8.25;;;15.50;99.90;;;;;;5077016;28;20059;-77
2023/08/14 05:06:03;;;;;;;12.85;8.30;;;15.50;99.90;;;;;;5094750;28;20044;-77
2023/08/14 05:08:29;;;;;;;15.65;8.30;;;15.60;99.90;;;;;;5096068;28;20044;-76
2023/08/14 05:10:55;;;;;;;15.38;8.77;;;15.60;99.90;;;;;;5094599;28;20067;-76
2023/08/14 05:13:21;;;;;;;15.57;7.93;;;15.70;99.90;;;;;;5094036;28;20490;-77
2023/08/14 05:15:47;;;;;;;9.77;7.05;;;15.70;99.90;;;;;;5077174;28;20043;-76
2023/08/14 05:18:13;;;;;;;12.40;7.32;;;15.80;99.90;;;;;;5076921;28;20048;-76
2023/08/14 05:20:46;;;;;;;12.98;7.50;;;15.80;99.90;;;;;;5095878;28;20405;-76
2023/08/14 05:23:12;;;;;;;11.77;7.63;;;15.80;99.90;;;;;;5095453;28;20127;-78
2023/08/14 05:25:38;;;;;;;14.25;6.80;;;15.80;99.90;;;;;;5094077;28;20055;-78
2023/08/14 05:28:05;;;;;;;15.15;7.93;;;15.90;99.90;;;;;;5094413;28;20052;-77
2023/08/14 05:30:30;;;;;;;14.27;7.25;;;16.00;99.90;;;;;;5107347;28;20073;-78
2023/08/14 05:32:56;;;;;;;13.05;6.90;;;16.00;99.90;;;;;;5115238;28;20035;-76
2023/08/14 05:35:25;;;;;;;11.00;6.70;;;16.00;99.90;;;;;;5113387;28;20039;-76
2023/08/14 05:37:58;;;;;;;11.68;6.90;;;16.10;99.90;;;;;;5098077;28;20044;-75
2023/08/14 05:40:27;;;;;;;9.07;6.25;;;16.10;99.90;;;;;;5092966;28;20079;-76
2023/08/14 05:43:03;;;;;;;15.15;6.85;;;16.20;99.90;;;;;;5093211;28;20059;-77
2023/08/14 05:45:43;;;;;;;12.77;6.85;;;16.30;99.90;;;;;;5092899;28;20047;-77
2023/08/14 05:48:10;;;;;;;17.05;6.80;;;16.40;99.90;;;;;;5093140;28;20079;-77
2023/08/14 05:50:36;;;;;;;10.48;5.80;;;16.40;99.90;;;;;;5093060;28;20090;-76
2023/08/14 05:53:03;;;;;;;10.85;6.32;;;16.50;99.90;;;;;;5094121;28;20044;-76
2023/08/14 05:55:34;;;;;;;9.38;5.70;;;16.60;99.90;;;;;;5093889;28;20148;-77
2023/08/14 05:58:02;;;;;;;11.85;6.47;;;16.60;99.90;;;;;;5093219;28;20040;-77
2023/08/14 06:00:28;;;;;;;18.85;7.00;;;16.60;99.90;;;;;;5092705;28;20494;-77
2023/08/14 06:02:54;;;;;;;15.38;6.95;;;16.70;99.90;;;;;;5094453;28;20059;-76
2023/08/14 06:05:20;;;;;;;10.65;6.85;;;16.70;99.90;;;;;;5095271;28;20043;-77
2023/08/14 06:07:51;;;;;;;13.25;6.47;;;16.80;99.90;;;;;;5076618;28;20131;-77
2023/08/14 06:10:17;;;;;;;16.30;6.25;;;16.80;99.90;;;;;;5077077;28;20085;-78
2023/08/14 06:12:44;;;;;;;10.95;6.07;;;16.80;99.90;;;;;;5078017;28;20040;-77
2023/08/14 06:15:11;;;;;;;11.35;6.53;;;16.90;99.90;;;;;;5094622;28;20101;-77
2023/08/14 06:17:38;;;;;;;10.77;6.50;;;16.90;99.90;;;;;;5094795;28;20448;-78
2023/08/14 06:20:04;;;;;;;13.40;6.50;;;16.90;99.90;;;;;;5114621;28;20048;-78
2023/08/14 06:22:30;;;;;;;10.90;6.40;;;17.00;99.90;;;;;;5097017;28;20104;-78
2023/08/14 06:24:56;;;;;;;14.25;6.57;;;17.10;99.90;;;;;;5099074;28;20060;-78
2023/08/14 06:27:22;;;;;;;13.52;6.38;;;17.10;99.90;;;;;;5095365;28;20051;-77
2023/08/14 06:29:47;;;;;;;12.25;6.60;;;17.20;99.90;;;;;;5093009;28;20043;-77
2023/08/14 06:32:13;;;;;;;15.15;6.82;;;17.30;99.90;;;;;;5093995;28;20071;-78
2023/08/14 06:34:39;;;;;;;11.18;6.32;;;17.40;99.90;;;;;;5094742;28;20402;-76
2023/08/14 06:37:05;;;;;;;12.57;5.95;;;17.50;99.90;;;;;;5093845;28;20051;-76
2023/08/14 06:39:30;;;;;;;12.05;6.05;;;17.60;99.90;;;;;;5107040;28;20122;-76
2023/08/14 06:41:57;;;;;;;10.52;6.07;;;17.70;99.90;;;;;;5113324;28;20549;-77
2023/08/14 06:44:23;;;;;;;8.18;5.07;;;17.70;99.90;;;;;;5108200;28;20398;-76
2023/08/14 06:46:49;;;;;;;11.80;5.45;;;17.70;99.90;;;;;;5092921;28;20047;-76
2023/08/14 06:49:14;;;;;;;13.70;5.82;;;17.70;99.90;;;;;;5096165;28;20044;-76
2023/08/14 06:51:40;;;;;;;9.77;5.43;;;17.70;99.90;;;;;;5095923;28;20383;-77
2023/08/14 06:54:06;;;;;;;14.38;5.38;;;17.80;99.90;;;;;;5097255;28;20379;-77
2023/08/14 06:56:32;;;;;;;11.35;5.43;;;17.80;99.90;;;;;;5097529;28;20397;-77
2023/08/14 06:58:58;;;;;;;14.80;5.97;;;17.80;99.90;;;;;;5093409;28;20040;-76
2023/08/14 07:01:25;;;;;;;10.05;5.38;;;17.90;99.90;;;;;;5094640;28;20032;-77
2023/08/14 07:03:51;;;;;;;16.30;6.17;;;17.90;99.90;;;;;;5076213;28;20079;-76
2023/08/14 07:06:16;;;;;;;15.75;5.20;;;17.90;99.90;;;;;;5094625;28;20298;-78
2023/08/14 07:08:42;;;;;;;12.45;5.68;;;18.00;99.90;;;;;;5095054;28;20091;-78
2023/08/14 07:11:08;;;;;;;10.48;5.03;;;18.00;99.90;;;;;;5092609;28;20157;-77
2023/08/14 07:13:33;;;;;;;12.52;5.53;;;18.00;99.90;;;;;;5092765;28;20444;-77
2023/08/14 07:15:59;;;;;;;9.82;5.57;;;18.10;99.90;;;;;;5092513;28;20401;-77
2023/08/14 07:18:26;;;;;;;11.20;6.07;;;18.20;99.90;;;;;;5075560;28;20465;-77
2023/08/14 07:20:52;;;;;;;11.63;5.45;;;18.40;99.90;;;;;;5092192;28;20044;-77
2023/08/14 07:23:19;;;;;;;12.30;5.05;;;18.60;99.90;;;;;;5075224;28;20543;-77
2023/08/14 07:25:46;;;;;;;9.98;5.18;;;18.70;99.90;;;;;;5093261;28;20078;-77
2023/08/14 07:28:12;;;;;;;9.80;5.07;;;18.90;99.90;;;;;;5093243;28;20040;-77
2023/08/14 07:30:39;;;;;;;8.77;4.90;;;19.10;99.90;;;;;;5095073;28;20133;-78
2023/08/14 07:33:10;;;;;;;9.27;4.93;;;19.20;99.90;;;;;;5093717;28;20048;-78
2023/08/14 07:35:36;;;;;;;9.05;4.47;;;19.30;99.90;;;;;;5093457;28;20050;-79
2023/08/14 07:38:03;;;;;;;6.38;4.05;;;19.50;99.90;;;;;;5110380;28;20382;-77
2023/08/14 07:40:29;;;;;;;8.55;4.18;;;19.70;99.90;;;;;;5117109;28;20052;-77
2023/08/14 07:42:55;;;;;;;10.30;4.40;;;19.70;99.90;;;;;;5118925;28;20035;-79
2023/08/14 07:45:20;;;;;;;8.90;3.63;;;19.80;99.90;;;;;;5117579;28;20463;-77
2023/08/14 07:47:46;;;;;;;9.38;4.47;;;19.90;99.90;;;;;;5117891;28;20081;-77
2023/08/14 07:50:12;;;;;;;13.40;4.50;;;19.90;99.90;;;;;;5122128;27;20071;-78
2023/08/14 07:52:39;;;;;;;9.48;3.97;;;20.00;99.90;;;;;;5123872;28;20404;-77
2023/08/14 07:55:05;;;;;;;9.13;4.50;;;20.00;99.90;;;;;;5124472;28;20047;-77
2023/08/14 07:57:31;;;;;;;9.93;4.15;;;20.10;99.90;;;;;;5126130;28;20044;-77
2023/08/14 07:59:56;;;;;;;10.13;4.13;;;20.20;99.90;;;;;;5117950;28;20028;-77
2023/08/14 08:02:22;;;;;;;9.57;4.18;;;20.20;99.90;;;;;;5097802;28;20040;-77
2023/08/14 08:04:48;;;;;;;9.55;3.72;;;20.20;99.90;;;;;;5106059;28;20040;-77
2023/08/14 08:07:14;;;;;;;9.60;4.70;;;20.20;99.90;;;;;;5122171;28;20099;-78
2023/08/14 08:09:43;;;;;;;9.75;3.97;;;20.20;99.90;;;;;;5119786;28;20084;-77
2023/08/14 08:12:09;;;;;;;11.00;4.55;;;20.20;99.90;;;;;;5120582;28;20048;-78
2023/08/14 08:14:36;;;;;;;6.93;4.07;;;20.10;99.90;;;;;;5121980;28;20043;-76
2023/08/14 08:17:02;;;;;;;9.48;4.03;;;20.10;99.90;;;;;;5119804;28;20122;-77
2023/08/14 08:19:28;;;;;;;9.68;4.30;;;20.10;99.90;;;;;;5105137;28;20040;-78
2023/08/14 08:21:54;;;;;;;9.43;4.38;;;20.20;99.90;;;;;;5100931;28;20040;-77
2023/08/14 08:24:19;;;;;;;9.48;4.20;;;20.20;99.90;;;;;;5114468;28;20409;-77
2023/08/14 08:26:45;;;;;;;11.20;4.63;;;20.20;99.90;;;;;;5118706;28;20058;-78
2023/08/14 08:29:11;;;;;;;14.60;4.80;;;20.30;99.90;;;;;;5102717;28;20046;-78
2023/08/14 08:31:36;;;;;;;11.05;3.90;;;20.40;99.90;;;;;;5103844;28;20040;-78
2023/08/14 08:34:02;;;;;;;11.13;4.05;;;20.50;99.90;;;;;;5122118;28;20132;-79
2023/08/14 08:36:28;;;;;;;8.10;4.07;;;20.70;99.90;;;;;;5109569;28;20100;-78
2023/08/14 08:38:53;;;;;;;8.85;3.80;;;20.90;99.90;;;;;;5099146;28;20093;-78
2023/08/14 08:41:40;;;;;;;10.32;4.57;;;21.10;99.90;;;;;;5096441;28;20123;-77
2023/08/14 08:44:09;;;;;;;12.82;3.70;;;21.30;99.90;;;;;;5109303;28;20088;-78
2023/08/14 08:46:37;;;;;;;11.43;4.10;;;21.40;99.90;;;;;;5119996;28;20086;-78
2023/08/14 08:49:04;;;;;;;9.07;3.20;;;21.50;99.90;;;;;;5107110;28;20115;-79
2023/08/14 08:51:30;;;;;;;10.88;3.45;;;21.60;99.90;;;;;;5096591;28;20048;-79
2023/08/14 08:53:57;;;;;;;8.15;3.05;;;21.70;99.90;;;;;;5099986;28;20044;-78
2023/08/14 08:56:23;;;;;;;9.77;3.33;;;21.80;99.90;;;;;;5083301;28;20137;-78
2023/08/14 08:58:49;;;;;;;5.70;2.88;;;21.90;99.90;;;;;;5099375;28;20071;-78
2023/08/14 09:01:15;;;;;;;8.15;3.33;;;22.00;99.90;;;;;;5098342;28;20448;-77
2023/08/14 09:03:41;;;;;;;6.65;2.92;;;22.00;99.90;;;;;;5097120;28;20440;-77
2023/08/14 09:06:07;;;;;;;6.13;2.85;;;22.00;99.90;;;;;;5078372;28;20047;-77
2023/08/14 09:08:33;;;;;;;8.65;2.88;;;22.10;99.90;;;;;;5099650;28;20040;-79
2023/08/14 09:10:58;;;;;;;7.90;2.92;;;22.20;99.90;;;;;;5096868;28;20067;-78
2023/08/14 09:13:24;;;;;;;8.15;3.03;;;22.30;99.90;;;;;;5097320;28;20040;-78
2023/08/14 09:15:52;;;;;;;9.82;2.85;;;22.40;99.90;;;;;;5096741;28;20493;-77
2023/08/14 09:18:17;;;;;;;7.88;2.40;;;22.50;99.90;;;;;;5097070;28;20104;-79
2023/08/14 09:20:44;;;;;;;7.45;2.20;;;22.50;99.90;;;;;;5096712;28;20111;-77
2023/08/14 09:23:12;;;;;;;6.22;2.13;;;22.50;99.90;;;;;;5077108;28;20052;-77
2023/08/14 09:25:44;;;;;;;4.55;2.08;;;22.40;99.90;;;;;;5095182;28;20123;-79
2023/08/14 09:28:10;;;;;;;8.27;2.45;;;22.20;99.90;;;;;;5117268;28;20095;-78
2023/08/14 09:30:37;;;;;;;5.22;2.22;;;22.30;99.90;;;;;;5118437;28;20094;-80
2023/08/14 09:33:08;;;;;;;10.52;2.10;;;22.50;99.90;;;;;;5113944;28;20050;-78
2023/08/14 09:35:34;;;;;;;6.50;2.00;;;22.80;99.90;;;;;;5116510;28;20075;-81
2023/08/14 09:38:00;;;;;;;6.53;1.90;;;23.00;99.90;;;;;;5119882;28;20077;-80
2023/08/14 09:40:26;;;;;;;8.35;2.40;;;23.10;99.90;;;;;;5120141;28;20447;-79
2023/08/14 09:42:54;;;;;;;6.57;2.35;;;23.20;99.90;;;;;;5110948;28;20052;-79
2023/08/14 09:45:23;;;;;;;7.55;2.10;;;23.30;99.90;;;;;;5100367;28;20063;-78
2023/08/14 09:47:50;;;;;;;7.30;2.22;;;23.40;99.90;;;;;;5115159;28;20047;-78
2023/08/14 09:50:17;;;;;;;6.53;2.47;;;23.60;99.90;;;;;;5101809;28;20101;-78
2023/08/14 09:52:43;;;;;;;4.85;2.13;;;23.60;99.90;;;;;;5113201;28;20086;-78
2023/08/14 09:55:10;;;;;;;5.80;2.08;;;23.60;99.90;;;;;;5104098;28;20446;-78
2023/08/14 09:57:37;;;;;;;4.90;1.77;;;23.70;99.90;;;;;;5120164;28;20043;-80
2023/08/14 10:00:03;;;;;;;5.22;1.90;;;23.80;99.90;;;;;;5113674;28;20032;-79
2023/08/14 10:02:32;;;;;;;5.05;1.85;;;24.00;99.90;;;;;;5120996;28;20118;-79
2023/08/14 10:04:59;;;;;;;3.83;1.90;;;24.10;99.90;;;;;;5121354;28;20114;-79
2023/08/14 10:07:26;;;;;;;5.32;2.83;;;24.20;99.90;;;;;;5121405;27;20099;-77
2023/08/14 10:09:55;;;;;;;7.20;2.05;;;24.30;99.90;;;;;;5118348;28;20054;-77
2023/08/14 10:12:23;;;;;;;6.45;2.00;;;24.30;99.90;;;;;;5115917;28;20078;-78
2023/08/14 10:15:13;;;;;;;5.63;1.83;;;24.40;99.90;;;;;;5119785;28;20039;-77
2023/08/14 10:17:49;;;;;;;4.93;1.63;;;24.60;99.90;;;;;;5124716;28;20050;-79
2023/08/14 10:20:19;;;;;;;4.20;1.63;;;24.80;99.90;;;;;;5120006;28;20039;-80
2023/08/14 10:22:47;;;;;;;9.40;2.13;;;25.20;99.90;;;;;;5124269;28;20050;-80
2023/08/14 10:25:14;;;;;;;5.88;1.73;;;25.40;99.90;;;;;;5119488;28;20055;-81
2023/08/14 10:27:40;;;;;;;7.65;1.60;;;25.70;99.90;;;;;;5120329;28;20044;-80
2023/08/14 10:30:07;;;;;;;5.72;1.85;;;25.70;99.90;;;;;;5102444;28;20462;-81
2023/08/14 10:32:34;;;;;;;4.53;1.52;;;25.70;99.90;;;;;;5097595;28;20062;-80
2023/08/14 10:35:00;;;;;;;6.45;2.50;;;25.60;99.90;;;;;;5100349;28;20040;-79
2023/08/14 10:37:28;;;;;;;7.88;1.92;;;25.40;99.90;;;;;;5095656;28;20051;-78
2023/08/14 10:40:13;;;;;;;3.95;1.60;;;25.50;99.90;;;;;;5080478;28;20052;-78
2023/08/14 10:42:43;;;;;;;5.07;1.38;;;25.60;99.90;;;;;;5102903;28;20059;-79
2023/08/14 10:45:15;;;;;;;6.47;1.80;;;25.80;99.90;;;;;;5096571;28;20036;-78
2023/08/14 10:47:41;;;;;;;4.20;1.65;;;26.20;99.90;;;;;;5111685;28;20491;-80
2023/08/14 10:50:26;;;;;;;4.22;1.80;;;26.40;99.90;;;;;;5110208;28;20044;-79
2023/08/14 10:52:54;;;;;;;5.68;1.65;;;26.70;99.90;;;;;;5118275;28;20093;-79
2023/08/14 10:55:39;;;;;;;4.97;1.70;;;26.90;99.90;;;;;;5120193;28;20032;-79
2023/08/14 10:58:36;;;;;;;7.35;1.88;;;27.10;99.90;;;;;;5097166;28;20092;-79
2023/08/14 11:01:06;;;;;;;8.20;2.28;;;27.20;98.90;;;;;;5115317;28;20040;-79
2023/08/14 11:03:34;;;;;;;6.45;2.13;;;27.20;98.40;;;;;;5119548;28;20032;-79
2023/08/14 11:06:00;;;;;;;4.18;1.60;;;27.10;98.80;;;;;;5119829;28;20059;-79
2023/08/14 11:08:30;;;;;;;3.88;1.63;;;27.20;98.90;;;;;;5116089;28;20050;-79
2023/08/14 11:10:57;;;;;;;6.85;1.65;;;27.40;98.90;;;;;;5109037;28;20437;-78
2023/08/14 11:13:26;;;;;;;6.18;1.60;;;27.30;98.50;;;;;;5117629;28;20400;-78
2023/08/14 11:15:53;;;;;;;5.43;1.73;;;27.40;98.10;;;;;;5110657;28;20054;-79
2023/08/14 11:18:20;;;;;;;5.97;2.10;;;27.40;98.20;;;;;;5120272;28;20055;-78
2023/08/14 11:20:46;;;;;;;4.80;2.03;;;27.50;98.20;;;;;;5125529;28;20095;-79
2023/08/14 11:23:11;;;;;;;5.63;1.70;;;27.50;98.10;;;;;;5124235;28;20074;-80
2023/08/14 11:25:38;;;;;;;5.13;1.50;;;27.50;97.70;;;;;;5127064;28;20087;-80
2023/08/14 11:28:04;;;;;;;4.87;1.90;;;27.50;97.10;;;;;;5124843;28;20058;-78
2023/08/14 11:30:34;;;;;;;4.65;1.50;;;27.50;97.10;;;;;;5117805;28;20040;-81
2023/08/14 11:33:06;;;;;;;4.57;1.70;;;27.60;96.70;;;;;;5120900;28;20478;-79
2023/08/14 11:35:32;;;;;;;3.13;1.40;;;27.80;96.40;;;;;;5105141;28;20028;-78
2023/08/14 11:37:58;;;;;;;5.70;2.58;;;28.00;95.90;;;;;;5105393;28;20078;-79
2023/08/14 11:40:24;;;;;;;7.57;2.53;;;28.20;95.70;;;;;;5102707;28;20067;-80
2023/08/14 11:42:51;;;;;;;4.22;1.60;;;28.40;96.30;;;;;;5115140;27;20398;-79
2023/08/14 11:45:16;;;;;;;3.88;1.70;;;28.60;95.60;;;;;;5112389;28;20146;-79
2023/08/14 11:47:49;;;;;;;4.07;1.50;;;28.80;95.10;;;;;;5127269;28;20039;-78
2023/08/14 11:50:16;;;;;;;6.53;1.90;;;28.70;94.20;;;;;;5125246;28;20563;-79
2023/08/14 11:52:44;;;;;;;5.32;1.70;;;28.70;93.90;;;;;;5101198;28;20114;-79
2023/08/14 11:55:10;;;;;;;6.43;1.80;;;28.80;93.70;;;;;;5098912;28;20048;-78
2023/08/14 11:57:37;;;;;;;4.60;1.50;;;28.80;93.70;;;;;;5098946;28;20097;-78
2023/08/14 12:00:10;;;;;;;6.45;1.73;;;28.60;93.10;;;;;;5113200;28;20044;-79
2023/08/14 12:02:38;;;;;;;5.15;1.90;;;28.30;93.30;;;;;;5098701;28;20398;-78
2023/08/14 12:05:05;;;;;;;5.38;1.60;;;28.30;92.90;;;;;;5097954;28;20078;-78
2023/08/14 12:07:31;;;;;;;7.93;2.13;;;28.30;93.10;;;;;;5098145;28;20100;-78
2023/08/14 12:09:58;;;;;;;4.73;1.60;;;28.40;93.90;;;;;;5097839;28;20044;-80
2023/08/14 12:12:25;;;;;;;3.63;1.42;;;28.40;93.30;;;;;;5105616;28;20100;-78
2023/08/14 12:14:51;;;;;;;;;;;28.50;93.20;;;;;;5118952;28;20050;-80
2023/08/14 12:17:20;;;;;;;8.15;1.80;;;28.60;93.20;;;;;;5117262;28;19966;-79
2023/08/14 12:19:59;;;;;;;4.20;1.70;;;28.50;93.30;;;;;;5119119;28;20062;-80
2023/08/14 12:22:26;;;;;;;6.25;1.90;;;28.60;92.70;;;;;;5126122;28;20054;-79
2023/08/14 12:24:53;;;;;;;3.65;1.70;;;28.50;92.50;;;;;;5118540;28;20059;-78
2023/08/14 12:27:21;;;;;;;4.75;1.58;;;28.40;93.00;;;;;;5120332;28;20052;-79
2023/08/14 12:29:47;;;;;;;4.00;1.70;;;28.60;93.40;;;;;;5118745;28;20044;-80
2023/08/14 12:32:14;;;;;;;3.90;1.73;;;28.60;93.40;;;;;;5106704;28;20063;-77
2023/08/14 12:34:40;;;;;;;3.65;1.45;;;28.40;92.90;;;;;;5099336;28;20040;-79
2023/08/14 12:37:06;;;;;;;4.65;1.50;;;28.00;92.00;;;;;;5122255;28;20051;-80
2023/08/14 12:39:32;;;;;;;4.53;1.80;;;27.60;93.00;;;;;;5109847;28;20127;-78
2023/08/14 12:42:00;;;;;;;4.53;1.73;;;27.70;94.50;;;;;;5101490;28;20099;-78
2023/08/14 12:44:26;;;;;;;;;;;27.70;94.10;;;;;;5104941;28;20051;-78